WEATHER DATA

TODAY
Time Temp. Dewp. Hum. Bar.
00:07 18.6 14.9 79 1017.3
00:18 18.5 14.8 79 1017.4
00:28 18.3 14.6 79 1017.1
00:38 18.3 14.8 80 1017.4
00:48 18.2 14.7 80 1017.4
00:58 17.9 14.4 80 1017.4
01:08 17.7 14.4 81 1017.3
01:18 17.7 14.6 82 1017.4
01:28 17.7 14.6 82 1017.2
01:38 17.6 14.5 82 1017.4
01:48 17.6 14.5 82 1017.5
01:59 17.5 14.4 82 1017.9
02:10 17.4 14.5 83 1017.7
02:19 17.4 14.7 84 1017.7
02:29 17.5 14.8 84 1017.7
02:40 17.4 14.7 84 1017.8
02:50 17.4 14.7 84 1017.7
02:59 17.3 14.4 83 1017.6
03:09 17.2 14.5 84 1017.5
03:20 17.2 14.5 84 1017.5
03:30 17.1 14.4 84 1017.6
03:40 17 14.3 84 1017.6
03:50 17 14.3 84 1017.4
04:00 16.9 14.2 84 1017.5
04:10 16.9 14.4 85 1017.4
04:20 16.8 14.3 85 1017.4
04:31 16.7 14.2 85 1017.2
04:40 16.7 14.2 85 1016.9
04:50 16.6 14.1 85 1017.1
05:01 16.5 14 85 1017.1
05:11 16.4 13.9 85 1017
05:20 16.4 14.1 86 1016.9
05:30 16.3 14 86 1017.1
05:41 16.2 13.9 86 1017.1
05:51 16.2 14 87 1017
06:01 16 13.8 87 1017
06:11 16 13.8 87 1016.9
06:21 16 14 88 1017.1
06:31 16 14 88 1017.2
06:41 16 14 88 1017.2
06:51 16 14 88 1017.3
07:01 16 14 88 1017.3
07:11 16 14 88 1017.4
07:22 16.1 14.1 88 1017.4
07:32 16.2 14.2 88 1017.6
07:41 16.2 14.2 88 1017.7
07:51 16.3 14.3 88 1017.8
08:02 16.3 14.3 88 1017.9
08:12 16.5 14.7 89 1017.6
08:21 16.7 14.9 89 1017.8
08:32 16.7 14.7 88 1017.9
08:42 17.1 15.4 90 1017.8
08:52 18.3 16.8 91 1017.9
09:02 19.1 16.7 86 1017.9
09:12 20.2 17.8 86 1018
09:22 19.5 15.6 78 1017.9
09:32 19.2 15.5 79 1018
09:42 19.1 15.6 80 1018
09:52 18.9 15.4 80 1017.9
10:02 19.1 15.4 79 1017.9
10:12 19.3 15.2 77 1017.8
10:23 19.4 15.1 76 1018.2
10:33 19.5 14.5 73 1018
10:42 19.7 14.3 71 1018
10:53 19.9 14.5 71 1018
11:03 20.1 14.7 71 1017.7
11:13 20.3 14.7 70 1017.8
11:22 20.5 14.4 68 1017.7
11:33 20.7 14.1 66 1017.7
11:43 20.9 14.5 67 1017.6
11:53 21 14.4 66 1017.5
12:03 21.1 14.5 66 1017.5
12:13 21.3 14.7 66 1017.4
12:23 21.6 14.5 64 1017.2
12:33 21.8 14.5 63 1017.3
12:44 21.8 13.7 60 1017.4
13:03 22 13.9 60 1017.1
13:14 22.2 13.8 59 1017
13:24 22.4 14 59 1017
13:34 22.7 14.5 60 1017
13:43 22.9 14.5 59 1016.7
13:54 23.1 14.1 57 1016.6
14:04 23.1 13.9 56 1016.3
14:14 23.3 13.5 54 1016.3
14:24 23.8 14.5 56 1016.1
14:34 24 14.1 54 1015.9
14:44 24.2 13.7 52 1015.7
14:54 24.6 14.4 53 1015.7
15:05 24.8 14 51 1015.8
15:14 24.8 14 51 1015.6
15:24 25 13.9 50 1015.5
15:35 25 13.6 49 1015.7
15:45 25.1 14 50 1015.6

DAY STATISTIC

2018-05-24
TEMPERATURE
AVERAGE
19.0
HIGH
25.1
15:45
LOW
16.0
06:01
PRESSURE
AVERAGE
1017.3
HIGH
1018.2
10:23
LOW
1015.5
15:24
DEWPOINT
AVERAGE
14.5
HIGH
17.8
09:12
LOW
13.5
14:14
HUMIDITY
AVERAGE
76
HIGH
91
08:52
LOW
49
15:35
TEMPERATURE (°C)
LOW
16.0
HIGH
25.1
AVERAGE
19.0
PRESSURE (hpa)
LOW
1015.5
HIGH
1018.2
AVERAGE
1017.3
DEVICE